sensor_id;sensor_type;location;lat;lon;timestamp;P1;durP1;ratioP1;P2;durP2;ratioP2
69087;SDS011;56190;43.562;5.036;2022-12-18T00:00:20;29.45;;;22.67;;
69087;SDS011;56190;43.562;5.036;2022-12-18T00:02:45;31.20;;;22.92;;
69087;SDS011;56190;43.562;5.036;2022-12-18T00:05:10;31.25;;;23.77;;
69087;SDS011;56190;43.562;5.036;2022-12-18T00:07:36;30.75;;;23.92;;
69087;SDS011;56190;43.562;5.036;2022-12-18T00:10:02;30.20;;;23.48;;
69087;SDS011;56190;43.562;5.036;2022-12-18T00:12:27;31.05;;;24.27;;
69087;SDS011;56190;43.562;5.036;2022-12-18T00:14:52;30.92;;;23.23;;
69087;SDS011;56190;43.562;5.036;2022-12-18T00:17:17;28.98;;;22.77;;
69087;SDS011;56190;43.562;5.036;2022-12-18T00:19:43;26.40;;;20.80;;
69087;SDS011;56190;43.562;5.036;2022-12-18T00:22:08;29.85;;;21.98;;
69087;SDS011;56190;43.562;5.036;2022-12-18T00:24:33;28.92;;;22.85;;
69087;SDS011;56190;43.562;5.036;2022-12-18T00:26:58;27.70;;;21.67;;
69087;SDS011;56190;43.562;5.036;2022-12-18T00:29:23;27.38;;;21.77;;
69087;SDS011;56190;43.562;5.036;2022-12-18T00:31:49;27.52;;;20.73;;
69087;SDS011;56190;43.562;5.036;2022-12-18T00:34:14;27.50;;;20.98;;
69087;SDS011;56190;43.562;5.036;2022-12-18T00:36:39;26.50;;;21.05;;
69087;SDS011;56190;43.562;5.036;2022-12-18T00:39:05;27.48;;;21.65;;
69087;SDS011;56190;43.562;5.036;2022-12-18T00:41:30;27.88;;;21.55;;
69087;SDS011;56190;43.562;5.036;2022-12-18T00:44:14;29.95;;;23.30;;
69087;SDS011;56190;43.562;5.036;2022-12-18T00:46:40;32.30;;;24.33;;
69087;SDS011;56190;43.562;5.036;2022-12-18T00:49:06;42.63;;;33.03;;
69087;SDS011;56190;43.562;5.036;2022-12-18T00:51:31;65.70;;;46.47;;
69087;SDS011;56190;43.562;5.036;2022-12-18T00:53:56;36.58;;;28.10;;
69087;SDS011;56190;43.562;5.036;2022-12-18T00:56:22;32.58;;;24.80;;
69087;SDS011;56190;43.562;5.036;2022-12-18T00:58:47;33.35;;;24.88;;
69087;SDS011;56190;43.562;5.036;2022-12-18T01:01:13;37.53;;;27.77;;
69087;SDS011;56190;43.562;5.036;2022-12-18T01:03:38;35.92;;;28.08;;
69087;SDS011;56190;43.562;5.036;2022-12-18T01:06:07;30.88;;;23.75;;
69087;SDS011;56190;43.562;5.036;2022-12-18T01:08:32;31.15;;;23.70;;
69087;SDS011;56190;43.562;5.036;2022-12-18T01:10:57;32.58;;;24.70;;
69087;SDS011;56190;43.562;5.036;2022-12-18T01:13:23;30.08;;;23.83;;
69087;SDS011;56190;43.562;5.036;2022-12-18T01:15:51;33.78;;;24.48;;
69087;SDS011;56190;43.562;5.036;2022-12-18T01:18:17;33.10;;;26.38;;
69087;SDS011;56190;43.562;5.036;2022-12-18T01:20:42;31.25;;;23.92;;
69087;SDS011;56190;43.562;5.036;2022-12-18T01:23:07;33.15;;;24.08;;
69087;SDS011;56190;43.562;5.036;2022-12-18T01:25:32;32.65;;;25.52;;
69087;SDS011;56190;43.562;5.036;2022-12-18T01:27:57;39.75;;;29.20;;
69087;SDS011;56190;43.562;5.036;2022-12-18T01:30:23;33.10;;;25.92;;
69087;SDS011;56190;43.562;5.036;2022-12-18T01:32:48;35.10;;;27.40;;
69087;SDS011;56190;43.562;5.036;2022-12-18T01:35:13;38.42;;;29.05;;
69087;SDS011;56190;43.562;5.036;2022-12-18T01:37:38;38.03;;;28.42;;
69087;SDS011;56190;43.562;5.036;2022-12-18T01:40:04;35.10;;;26.88;;
69087;SDS011;56190;43.562;5.036;2022-12-18T01:42:29;38.53;;;28.13;;
69087;SDS011;56190;43.562;5.036;2022-12-18T01:45:00;30.85;;;24.08;;
69087;SDS011;56190;43.562;5.036;2022-12-18T01:50:08;26.15;;;20.05;;
69087;SDS011;56190;43.562;5.036;2022-12-18T01:52:35;24.85;;;19.80;;
69087;SDS011;56190;43.562;5.036;2022-12-18T01:55:02;23.30;;;18.23;;
69087;SDS011;56190;43.562;5.036;2022-12-18T01:57:28;20.25;;;17.05;;
69087;SDS011;56190;43.562;5.036;2022-12-18T01:59:53;22.75;;;17.88;;
69087;SDS011;56190;43.562;5.036;2022-12-18T02:02:21;21.00;;;16.95;;
69087;SDS011;56190;43.562;5.036;2022-12-18T02:04:46;23.42;;;17.08;;
69087;SDS011;56190;43.562;5.036;2022-12-18T02:09:40;18.65;;;15.05;;
69087;SDS011;56190;43.562;5.036;2022-12-18T02:12:13;18.90;;;15.73;;
69087;SDS011;56190;43.562;5.036;2022-12-18T02:15:01;18.08;;;14.55;;
69087;SDS011;56190;43.562;5.036;2022-12-18T02:17:36;18.10;;;15.52;;
69087;SDS011;56190;43.562;5.036;2022-12-18T02:22:36;20.67;;;16.55;;
69087;SDS011;56190;43.562;5.036;2022-12-18T02:25:13;18.55;;;16.23;;
69087;SDS011;56190;43.562;5.036;2022-12-18T02:27:41;19.80;;;16.08;;
69087;SDS011;56190;43.562;5.036;2022-12-18T02:30:07;18.15;;;16.13;;
69087;SDS011;56190;43.562;5.036;2022-12-18T02:32:37;17.30;;;15.23;;
69087;SDS011;56190;43.562;5.036;2022-12-18T02:35:05;18.00;;;15.23;;
69087;SDS011;56190;43.562;5.036;2022-12-18T02:37:30;16.42;;;13.45;;
69087;SDS011;56190;43.562;5.036;2022-12-18T02:39:57;14.07;;;12.57;;
69087;SDS011;56190;43.562;5.036;2022-12-18T02:42:23;15.38;;;12.07;;
69087;SDS011;56190;43.562;5.036;2022-12-18T02:44:50;16.17;;;11.32;;
69087;SDS011;56190;43.562;5.036;2022-12-18T02:47:20;13.88;;;12.05;;
69087;SDS011;56190;43.562;5.036;2022-12-18T02:50:05;12.75;;;11.40;;
69087;SDS011;56190;43.562;5.036;2022-12-18T02:57:55;15.80;;;11.70;;
69087;SDS011;56190;43.562;5.036;2022-12-18T03:00:23;13.18;;;11.52;;
69087;SDS011;56190;43.562;5.036;2022-12-18T03:03:09;15.93;;;12.05;;
69087;SDS011;56190;43.562;5.036;2022-12-18T03:08:10;17.25;;;13.88;;
69087;SDS011;56190;43.562;5.036;2022-12-18T03:10:39;15.43;;;13.30;;
69087;SDS011;56190;43.562;5.036;2022-12-18T03:13:08;17.40;;;13.23;;
69087;SDS011;56190;43.562;5.036;2022-12-18T03:15:37;14.98;;;12.30;;
69087;SDS011;56190;43.562;5.036;2022-12-18T03:18:08;15.02;;;12.45;;
69087;SDS011;56190;43.562;5.036;2022-12-18T03:20:35;14.48;;;11.68;;
69087;SDS011;56190;43.562;5.036;2022-12-18T03:23:12;14.82;;;12.00;;
69087;SDS011;56190;43.562;5.036;2022-12-18T03:25:39;12.45;;;11.07;;
69087;SDS011;56190;43.562;5.036;2022-12-18T03:28:06;15.50;;;11.27;;
69087;SDS011;56190;43.562;5.036;2022-12-18T03:30:33;14.90;;;11.50;;
69087;SDS011;56190;43.562;5.036;2022-12-18T03:33:20;13.95;;;11.05;;
69087;SDS011;56190;43.562;5.036;2022-12-18T03:35:49;14.52;;;11.52;;
69087;SDS011;56190;43.562;5.036;2022-12-18T03:38:14;14.50;;;12.95;;
69087;SDS011;56190;43.562;5.036;2022-12-18T03:43:09;24.77;;;18.25;;
69087;SDS011;56190;43.562;5.036;2022-12-18T03:45:37;23.50;;;17.85;;
69087;SDS011;56190;43.562;5.036;2022-12-18T03:48:07;21.25;;;16.92;;
69087;SDS011;56190;43.562;5.036;2022-12-18T03:53:25;14.10;;;11.75;;
69087;SDS011;56190;43.562;5.036;2022-12-18T03:55:51;13.10;;;11.35;;
69087;SDS011;56190;43.562;5.036;2022-12-18T03:58:18;11.70;;;9.88;;
69087;SDS011;56190;43.562;5.036;2022-12-18T04:00:44;12.70;;;10.32;;
69087;SDS011;56190;43.562;5.036;2022-12-18T04:03:10;13.85;;;10.38;;
69087;SDS011;56190;43.562;5.036;2022-12-18T04:05:35;9.73;;;8.13;;
69087;SDS011;56190;43.562;5.036;2022-12-18T04:08:02;10.98;;;8.43;;
69087;SDS011;56190;43.562;5.036;2022-12-18T04:10:27;9.30;;;7.70;;
69087;SDS011;56190;43.562;5.036;2022-12-18T04:12:55;10.68;;;8.18;;
69087;SDS011;56190;43.562;5.036;2022-12-18T04:15:20;9.10;;;7.55;;
69087;SDS011;56190;43.562;5.036;2022-12-18T04:17:49;9.30;;;7.45;;
69087;SDS011;56190;43.562;5.036;2022-12-18T04:20:14;8.18;;;6.70;;
69087;SDS011;56190;43.562;5.036;2022-12-18T04:22:40;8.68;;;7.28;;
69087;SDS011;56190;43.562;5.036;2022-12-18T04:25:05;8.48;;;6.72;;
69087;SDS011;56190;43.562;5.036;2022-12-18T04:27:31;7.25;;;6.20;;
69087;SDS011;56190;43.562;5.036;2022-12-18T04:29:56;7.65;;;6.55;;
69087;SDS011;56190;43.562;5.036;2022-12-18T04:32:21;8.52;;;6.50;;
69087;SDS011;56190;43.562;5.036;2022-12-18T04:34:46;7.90;;;6.38;;
69087;SDS011;56190;43.562;5.036;2022-12-18T04:37:11;6.68;;;5.97;;
69087;SDS011;56190;43.562;5.036;2022-12-18T04:39:37;7.55;;;6.10;;
69087;SDS011;56190;43.562;5.036;2022-12-18T04:42:02;7.65;;;6.10;;
69087;SDS011;56190;43.562;5.036;2022-12-18T04:44:27;8.18;;;5.57;;
69087;SDS011;56190;43.562;5.036;2022-12-18T04:46:53;5.93;;;5.32;;
69087;SDS011;56190;43.562;5.036;2022-12-18T04:49:18;6.93;;;5.38;;
69087;SDS011;56190;43.562;5.036;2022-12-18T04:51:43;6.32;;;5.53;;
69087;SDS011;56190;43.562;5.036;2022-12-18T04:54:08;7.43;;;5.38;;
69087;SDS011;56190;43.562;5.036;2022-12-18T04:56:34;5.85;;;5.13;;
69087;SDS011;56190;43.562;5.036;2022-12-18T04:58:59;5.55;;;4.88;;
69087;SDS011;56190;43.562;5.036;2022-12-18T05:01:24;6.32;;;4.90;;
69087;SDS011;56190;43.562;5.036;2022-12-18T05:03:50;6.35;;;4.93;;
69087;SDS011;56190;43.562;5.036;2022-12-18T05:06:16;6.32;;;5.15;;
69087;SDS011;56190;43.562;5.036;2022-12-18T05:08:41;6.03;;;4.75;;
69087;SDS011;56190;43.562;5.036;2022-12-18T05:11:07;6.88;;;4.50;;
69087;SDS011;56190;43.562;5.036;2022-12-18T05:13:33;6.45;;;4.80;;
69087;SDS011;56190;43.562;5.036;2022-12-18T05:15:59;6.50;;;4.97;;
69087;SDS011;56190;43.562;5.036;2022-12-18T05:18:24;5.88;;;4.90;;
69087;SDS011;56190;43.562;5.036;2022-12-18T05:20:50;6.35;;;5.07;;
69087;SDS011;56190;43.562;5.036;2022-12-18T05:23:15;7.28;;;5.28;;
69087;SDS011;56190;43.562;5.036;2022-12-18T05:25:40;5.88;;;4.65;;
69087;SDS011;56190;43.562;5.036;2022-12-18T05:28:06;6.65;;;4.85;;
69087;SDS011;56190;43.562;5.036;2022-12-18T05:30:31;6.93;;;4.97;;
69087;SDS011;56190;43.562;5.036;2022-12-18T05:32:56;6.18;;;4.93;;
69087;SDS011;56190;43.562;5.036;2022-12-18T05:35:21;5.68;;;4.70;;
69087;SDS011;56190;43.562;5.036;2022-12-18T05:37:47;5.30;;;4.25;;
69087;SDS011;56190;43.562;5.036;2022-12-18T05:40:12;5.25;;;4.50;;
69087;SDS011;56190;43.562;5.036;2022-12-18T05:42:37;4.90;;;4.20;;
69087;SDS011;56190;43.562;5.036;2022-12-18T05:45:03;5.93;;;4.65;;
69087;SDS011;56190;43.562;5.036;2022-12-18T05:47:28;5.43;;;4.72;;
69087;SDS011;56190;43.562;5.036;2022-12-18T05:49:54;8.30;;;6.18;;
69087;SDS011;56190;43.562;5.036;2022-12-18T05:52:19;8.63;;;7.30;;
69087;SDS011;56190;43.562;5.036;2022-12-18T05:54:44;7.63;;;6.47;;
69087;SDS011;56190;43.562;5.036;2022-12-18T05:57:10;7.35;;;5.22;;
69087;SDS011;56190;43.562;5.036;2022-12-18T05:59:35;5.22;;;4.72;;
69087;SDS011;56190;43.562;5.036;2022-12-18T06:02:00;5.30;;;4.25;;
69087;SDS011;56190;43.562;5.036;2022-12-18T06:04:26;7.70;;;6.18;;
69087;SDS011;56190;43.562;5.036;2022-12-18T06:06:56;9.38;;;7.32;;
69087;SDS011;56190;43.562;5.036;2022-12-18T06:09:21;7.95;;;6.10;;
69087;SDS011;56190;43.562;5.036;2022-12-18T06:11:47;11.15;;;8.55;;
69087;SDS011;56190;43.562;5.036;2022-12-18T06:14:12;11.45;;;8.32;;
69087;SDS011;56190;43.562;5.036;2022-12-18T06:16:37;9.90;;;8.25;;
69087;SDS011;56190;43.562;5.036;2022-12-18T06:19:03;7.93;;;6.72;;
69087;SDS011;56190;43.562;5.036;2022-12-18T06:21:29;8.00;;;6.05;;
69087;SDS011;56190;43.562;5.036;2022-12-18T06:23:54;6.05;;;5.13;;
69087;SDS011;56190;43.562;5.036;2022-12-18T06:26:20;4.60;;;3.72;;
69087;SDS011;56190;43.562;5.036;2022-12-18T06:28:45;5.07;;;4.00;;
69087;SDS011;56190;43.562;5.036;2022-12-18T06:31:11;4.82;;;3.80;;
69087;SDS011;56190;43.562;5.036;2022-12-18T06:33:36;5.28;;;4.78;;
69087;SDS011;56190;43.562;5.036;2022-12-18T06:38:27;7.50;;;5.70;;
69087;SDS011;56190;43.562;5.036;2022-12-18T06:40:52;10.15;;;8.98;;
69087;SDS011;56190;43.562;5.036;2022-12-18T06:43:17;12.52;;;10.52;;
69087;SDS011;56190;43.562;5.036;2022-12-18T06:45:43;11.13;;;9.00;;
69087;SDS011;56190;43.562;5.036;2022-12-18T06:48:08;10.23;;;8.80;;
69087;SDS011;56190;43.562;5.036;2022-12-18T06:50:33;9.50;;;7.53;;
69087;SDS011;56190;43.562;5.036;2022-12-18T06:52:59;8.95;;;6.75;;
69087;SDS011;56190;43.562;5.036;2022-12-18T06:55:24;7.40;;;6.50;;
69087;SDS011;56190;43.562;5.036;2022-12-18T06:57:50;5.82;;;4.95;;
69087;SDS011;56190;43.562;5.036;2022-12-18T07:00:15;5.38;;;4.38;;
69087;SDS011;56190;43.562;5.036;2022-12-18T07:02:41;5.88;;;3.80;;
69087;SDS011;56190;43.562;5.036;2022-12-18T07:05:06;6.43;;;3.65;;
69087;SDS011;56190;43.562;5.036;2022-12-18T07:07:32;5.55;;;3.90;;
69087;SDS011;56190;43.562;5.036;2022-12-18T07:09:58;5.57;;;4.30;;
69087;SDS011;56190;43.562;5.036;2022-12-18T07:12:23;4.97;;;3.65;;
69087;SDS011;56190;43.562;5.036;2022-12-18T07:14:48;5.47;;;4.00;;
69087;SDS011;56190;43.562;5.036;2022-12-18T07:17:13;4.55;;;3.60;;
69087;SDS011;56190;43.562;5.036;2022-12-18T07:19:39;4.38;;;3.85;;
69087;SDS011;56190;43.562;5.036;2022-12-18T07:22:04;6.50;;;3.50;;
69087;SDS011;56190;43.562;5.036;2022-12-18T07:24:29;3.78;;;3.35;;
69087;SDS011;56190;43.562;5.036;2022-12-18T07:26:54;5.20;;;4.10;;
69087;SDS011;56190;43.562;5.036;2022-12-18T07:29:20;4.10;;;3.33;;
69087;SDS011;56190;43.562;5.036;2022-12-18T07:31:45;4.43;;;3.25;;
69087;SDS011;56190;43.562;5.036;2022-12-18T07:34:11;4.05;;;2.95;;
69087;SDS011;56190;43.562;5.036;2022-12-18T07:36:36;6.03;;;3.22;;
69087;SDS011;56190;43.562;5.036;2022-12-18T07:39:02;3.55;;;2.80;;
69087;SDS011;56190;43.562;5.036;2022-12-18T07:41:27;4.72;;;3.10;;
69087;SDS011;56190;43.562;5.036;2022-12-18T07:43:52;4.50;;;3.20;;
69087;SDS011;56190;43.562;5.036;2022-12-18T07:46:18;3.88;;;3.08;;
69087;SDS011;56190;43.562;5.036;2022-12-18T07:48:43;4.00;;;2.95;;
69087;SDS011;56190;43.562;5.036;2022-12-18T07:51:09;4.38;;;3.10;;
69087;SDS011;56190;43.562;5.036;2022-12-18T07:53:38;3.65;;;2.75;;
69087;SDS011;56190;43.562;5.036;2022-12-18T07:56:04;5.00;;;3.42;;
69087;SDS011;56190;43.562;5.036;2022-12-18T07:58:30;5.50;;;3.90;;
69087;SDS011;56190;43.562;5.036;2022-12-18T08:01:05;7.60;;;4.38;;
69087;SDS011;56190;43.562;5.036;2022-12-18T08:03:30;6.15;;;3.67;;
69087;SDS011;56190;43.562;5.036;2022-12-18T08:06:02;4.90;;;3.55;;
69087;SDS011;56190;43.562;5.036;2022-12-18T08:08:28;3.60;;;3.20;;
69087;SDS011;56190;43.562;5.036;2022-12-18T08:10:53;7.15;;;3.28;;
69087;SDS011;56190;43.562;5.036;2022-12-18T08:13:18;3.85;;;3.20;;
69087;SDS011;56190;43.562;5.036;2022-12-18T08:15:43;3.92;;;3.20;;
69087;SDS011;56190;43.562;5.036;2022-12-18T08:18:09;4.55;;;3.00;;
69087;SDS011;56190;43.562;5.036;2022-12-18T08:20:34;4.70;;;3.05;;
69087;SDS011;56190;43.562;5.036;2022-12-18T08:22:59;5.68;;;3.47;;
69087;SDS011;56190;43.562;5.036;2022-12-18T08:25:24;4.45;;;3.70;;
69087;SDS011;56190;43.562;5.036;2022-12-18T08:27:50;5.38;;;3.67;;
69087;SDS011;56190;43.562;5.036;2022-12-18T08:30:15;5.30;;;3.80;;
69087;SDS011;56190;43.562;5.036;2022-12-18T08:32:40;4.88;;;3.25;;
69087;SDS011;56190;43.562;5.036;2022-12-18T08:35:06;4.78;;;3.00;;
69087;SDS011;56190;43.562;5.036;2022-12-18T08:37:31;3.67;;;2.95;;
69087;SDS011;56190;43.562;5.036;2022-12-18T08:39:56;3.38;;;3.00;;
69087;SDS011;56190;43.562;5.036;2022-12-18T08:42:22;4.78;;;2.97;;
69087;SDS011;56190;43.562;5.036;2022-12-18T08:45:05;4.43;;;2.90;;
69087;SDS011;56190;43.562;5.036;2022-12-18T08:47:31;4.03;;;3.05;;
69087;SDS011;56190;43.562;5.036;2022-12-18T08:49:56;6.07;;;4.95;;
69087;SDS011;56190;43.562;5.036;2022-12-18T08:52:21;5.80;;;3.08;;
69087;SDS011;56190;43.562;5.036;2022-12-18T08:54:46;10.48;;;5.80;;
69087;SDS011;56190;43.562;5.036;2022-12-18T08:57:12;9.13;;;7.30;;
69087;SDS011;56190;43.562;5.036;2022-12-18T08:59:37;17.08;;;12.88;;
69087;SDS011;56190;43.562;5.036;2022-12-18T09:02:02;20.73;;;17.02;;
69087;SDS011;56190;43.562;5.036;2022-12-18T09:04:27;21.05;;;18.23;;
69087;SDS011;56190;43.562;5.036;2022-12-18T09:06:53;25.02;;;22.35;;
69087;SDS011;56190;43.562;5.036;2022-12-18T09:09:21;28.35;;;22.77;;
69087;SDS011;56190;43.562;5.036;2022-12-18T09:11:46;21.77;;;19.48;;
69087;SDS011;56190;43.562;5.036;2022-12-18T09:14:11;25.42;;;22.35;;
69087;SDS011;56190;43.562;5.036;2022-12-18T09:16:36;24.38;;;21.23;;
69087;SDS011;56190;43.562;5.036;2022-12-18T09:19:03;25.25;;;20.77;;
69087;SDS011;56190;43.562;5.036;2022-12-18T09:21:32;19.00;;;16.77;;
69087;SDS011;56190;43.562;5.036;2022-12-18T09:23:57;17.23;;;13.70;;
69087;SDS011;56190;43.562;5.036;2022-12-18T09:26:23;7.32;;;5.65;;
69087;SDS011;56190;43.562;5.036;2022-12-18T09:28:49;6.30;;;4.10;;
69087;SDS011;56190;43.562;5.036;2022-12-18T09:31:14;4.72;;;3.28;;
69087;SDS011;56190;43.562;5.036;2022-12-18T09:33:40;6.20;;;2.97;;
69087;SDS011;56190;43.562;5.036;2022-12-18T09:36:06;7.95;;;5.10;;
69087;SDS011;56190;43.562;5.036;2022-12-18T09:38:31;4.65;;;3.00;;
69087;SDS011;56190;43.562;5.036;2022-12-18T09:40:59;8.43;;;5.00;;
69087;SDS011;56190;43.562;5.036;2022-12-18T09:43:45;5.05;;;3.30;;
69087;SDS011;56190;43.562;5.036;2022-12-18T09:46:11;6.70;;;3.00;;
69087;SDS011;56190;43.562;5.036;2022-12-18T09:48:41;5.07;;;2.50;;
69087;SDS011;56190;43.562;5.036;2022-12-18T09:51:14;6.47;;;2.90;;
69087;SDS011;56190;43.562;5.036;2022-12-18T09:56:05;3.17;;;2.50;;
69087;SDS011;56190;43.562;5.036;2022-12-18T09:58:41;4.00;;;2.88;;
69087;SDS011;56190;43.562;5.036;2022-12-18T10:01:13;7.05;;;3.65;;
69087;SDS011;56190;43.562;5.036;2022-12-18T10:03:39;6.28;;;3.40;;
69087;SDS011;56190;43.562;5.036;2022-12-18T10:11:01;4.63;;;2.70;;
69087;SDS011;56190;43.562;5.036;2022-12-18T10:13:33;7.63;;;4.20;;
69087;SDS011;56190;43.562;5.036;2022-12-18T10:18:38;4.38;;;3.25;;
69087;SDS011;56190;43.562;5.036;2022-12-18T10:21:09;8.45;;;4.10;;
69087;SDS011;56190;43.562;5.036;2022-12-18T10:26:08;8.05;;;4.55;;
69087;SDS011;56190;43.562;5.036;2022-12-18T10:28:35;6.15;;;3.33;;
69087;SDS011;56190;43.562;5.036;2022-12-18T10:31:07;8.10;;;3.33;;
69087;SDS011;56190;43.562;5.036;2022-12-18T10:33:37;6.57;;;3.33;;
69087;SDS011;56190;43.562;5.036;2022-12-18T10:36:02;6.72;;;3.05;;
69087;SDS011;56190;43.562;5.036;2022-12-18T10:38:28;4.20;;;2.72;;
69087;SDS011;56190;43.562;5.036;2022-12-18T10:40:55;7.10;;;3.30;;
69087;SDS011;56190;43.562;5.036;2022-12-18T10:43:23;5.97;;;3.40;;
69087;SDS011;56190;43.562;5.036;2022-12-18T10:48:33;5.30;;;3.33;;
69087;SDS011;56190;43.562;5.036;2022-12-18T10:50:59;5.72;;;2.70;;
69087;SDS011;56190;43.562;5.036;2022-12-18T10:53:25;3.08;;;2.00;;
69087;SDS011;56190;43.562;5.036;2022-12-18T10:55:51;11.40;;;2.00;;
69087;SDS011;56190;43.562;5.036;2022-12-18T10:58:22;6.13;;;3.00;;
69087;SDS011;56190;43.562;5.036;2022-12-18T11:06:04;3.97;;;2.05;;
69087;SDS011;56190;43.562;5.036;2022-12-18T11:08:30;4.78;;;2.95;;
69087;SDS011;56190;43.562;5.036;2022-12-18T11:10:55;6.30;;;3.30;;
69087;SDS011;56190;43.562;5.036;2022-12-18T11:13:21;5.53;;;2.88;;
69087;SDS011;56190;43.562;5.036;2022-12-18T11:15:47;6.53;;;2.22;;
69087;SDS011;56190;43.562;5.036;2022-12-18T11:18:55;7.85;;;2.92;;
69087;SDS011;56190;43.562;5.036;2022-12-18T11:21:05;5.43;;;2.47;;
69087;SDS011;56190;43.562;5.036;2022-12-18T11:23:32;5.22;;;2.40;;
69087;SDS011;56190;43.562;5.036;2022-12-18T11:26:02;11.80;;;6.57;;
69087;SDS011;56190;43.562;5.036;2022-12-18T11:31:08;7.43;;;4.22;;
69087;SDS011;56190;43.562;5.036;2022-12-18T11:33:34;5.63;;;2.90;;
69087;SDS011;56190;43.562;5.036;2022-12-18T11:36:01;6.43;;;2.83;;
69087;SDS011;56190;43.562;5.036;2022-12-18T11:38:29;7.53;;;4.53;;
69087;SDS011;56190;43.562;5.036;2022-12-18T11:43:24;8.25;;;2.83;;
69087;SDS011;56190;43.562;5.036;2022-12-18T11:46:02;11.98;;;4.82;;
69087;SDS011;56190;43.562;5.036;2022-12-18T11:48:52;10.43;;;4.70;;
69087;SDS011;56190;43.562;5.036;2022-12-18T11:51:15;16.08;;;10.13;;
69087;SDS011;56190;43.562;5.036;2022-12-18T11:53:46;7.10;;;3.55;;
69087;SDS011;56190;43.562;5.036;2022-12-18T11:56:18;11.00;;;7.13;;
69087;SDS011;56190;43.562;5.036;2022-12-18T11:58:54;5.10;;;2.13;;
69087;SDS011;56190;43.562;5.036;2022-12-18T12:06:29;9.48;;;7.13;;
69087;SDS011;56190;43.562;5.036;2022-12-18T12:16:21;7.80;;;3.35;;
69087;SDS011;56190;43.562;5.036;2022-12-18T12:22:00;8.25;;;3.20;;
69087;SDS011;56190;43.562;5.036;2022-12-18T12:29:06;11.52;;;6.63;;
69087;SDS011;56190;43.562;5.036;2022-12-18T12:39:01;5.27;;;3.50;;
69087;SDS011;56190;43.562;5.036;2022-12-18T12:41:30;6.15;;;3.20;;
69087;SDS011;56190;43.562;5.036;2022-12-18T12:44:16;7.68;;;3.72;;
69087;SDS011;56190;43.562;5.036;2022-12-18T12:46:43;8.35;;;4.93;;
69087;SDS011;56190;43.562;5.036;2022-12-18T12:49:10;7.03;;;4.47;;
69087;SDS011;56190;43.562;5.036;2022-12-18T12:51:37;6.95;;;3.55;;
69087;SDS011;56190;43.562;5.036;2022-12-18T12:54:05;5.20;;;2.20;;
69087;SDS011;56190;43.562;5.036;2022-12-18T12:56:40;10.50;;;6.43;;
69087;SDS011;56190;43.562;5.036;2022-12-18T12:59:14;11.05;;;5.50;;
69087;SDS011;56190;43.562;5.036;2022-12-18T13:04:18;24.65;;;12.20;;
69087;SDS011;56190;43.562;5.036;2022-12-18T13:06:53;7.22;;;4.38;;
69087;SDS011;56190;43.562;5.036;2022-12-18T13:09:21;8.70;;;4.38;;
69087;SDS011;56190;43.562;5.036;2022-12-18T13:11:46;9.48;;;5.07;;
69087;SDS011;56190;43.562;5.036;2022-12-18T13:14:34;6.45;;;2.88;;
69087;SDS011;56190;43.562;5.036;2022-12-18T13:19:41;8.18;;;2.53;;
69087;SDS011;56190;43.562;5.036;2022-12-18T13:22:20;9.63;;;5.72;;
69087;SDS011;56190;43.562;5.036;2022-12-18T13:24:46;7.18;;;3.55;;
69087;SDS011;56190;43.562;5.036;2022-12-18T13:29:55;7.60;;;2.75;;
69087;SDS011;56190;43.562;5.036;2022-12-18T13:32:22;5.32;;;3.03;;
69087;SDS011;56190;43.562;5.036;2022-12-18T13:34:47;5.13;;;3.30;;
69087;SDS011;56190;43.562;5.036;2022-12-18T13:39:56;8.70;;;4.95;;
69087;SDS011;56190;43.562;5.036;2022-12-18T13:42:34;6.32;;;3.60;;
69087;SDS011;56190;43.562;5.036;2022-12-18T13:45:37;5.30;;;3.00;;
69087;SDS011;56190;43.562;5.036;2022-12-18T13:48:03;4.88;;;3.20;;
69087;SDS011;56190;43.562;5.036;2022-12-18T13:50:28;5.63;;;3.67;;
69087;SDS011;56190;43.562;5.036;2022-12-18T13:52:54;5.68;;;2.70;;
69087;SDS011;56190;43.562;5.036;2022-12-18T13:55:19;8.05;;;5.95;;
69087;SDS011;56190;43.562;5.036;2022-12-18T13:57:45;11.80;;;7.40;;
69087;SDS011;56190;43.562;5.036;2022-12-18T14:02:45;10.07;;;5.47;;
69087;SDS011;56190;43.562;5.036;2022-12-18T14:05:27;4.18;;;3.33;;
69087;SDS011;56190;43.562;5.036;2022-12-18T14:07:53;6.63;;;4.78;;
69087;SDS011;56190;43.562;5.036;2022-12-18T14:10:19;4.45;;;3.28;;
69087;SDS011;56190;43.562;5.036;2022-12-18T14:12:46;3.40;;;2.58;;
69087;SDS011;56190;43.562;5.036;2022-12-18T14:17:50;7.30;;;4.63;;
69087;SDS011;56190;43.562;5.036;2022-12-18T14:20:15;8.57;;;3.88;;
69087;SDS011;56190;43.562;5.036;2022-12-18T14:22:42;7.85;;;4.47;;
69087;SDS011;56190;43.562;5.036;2022-12-18T14:27:36;27.88;;;17.27;;
69087;SDS011;56190;43.562;5.036;2022-12-18T14:30:15;30.33;;;19.48;;
69087;SDS011;56190;43.562;5.036;2022-12-18T14:32:42;13.40;;;7.68;;
69087;SDS011;56190;43.562;5.036;2022-12-18T14:35:12;12.18;;;9.13;;
69087;SDS011;56190;43.562;5.036;2022-12-18T14:37:38;10.90;;;8.43;;
69087;SDS011;56190;43.562;5.036;2022-12-18T14:40:03;10.00;;;7.03;;
69087;SDS011;56190;43.562;5.036;2022-12-18T14:42:30;10.75;;;6.65;;
69087;SDS011;56190;43.562;5.036;2022-12-18T14:47:42;10.65;;;6.30;;
69087;SDS011;56190;43.562;5.036;2022-12-18T14:50:12;10.10;;;7.55;;
69087;SDS011;56190;43.562;5.036;2022-12-18T14:52:38;11.13;;;7.07;;
69087;SDS011;56190;43.562;5.036;2022-12-18T14:55:04;23.45;;;12.95;;
69087;SDS011;56190;43.562;5.036;2022-12-18T14:57:32;19.60;;;11.40;;
69087;SDS011;56190;43.562;5.036;2022-12-18T15:00:07;15.77;;;8.35;;
69087;SDS011;56190;43.562;5.036;2022-12-18T15:02:40;7.60;;;3.80;;
69087;SDS011;56190;43.562;5.036;2022-12-18T16:28:38;7.20;;;4.53;;
69087;SDS011;56190;43.562;5.036;2022-12-18T16:31:31;6.43;;;4.13;;
69087;SDS011;56190;43.562;5.036;2022-12-18T16:34:37;10.07;;;5.95;;
69087;SDS011;56190;43.562;5.036;2022-12-18T16:43:43;7.95;;;5.35;;
69087;SDS011;56190;43.562;5.036;2022-12-18T16:46:37;5.25;;;3.90;;
69087;SDS011;56190;43.562;5.036;2022-12-18T16:55:20;6.65;;;3.60;;
69087;SDS011;56190;43.562;5.036;2022-12-18T16:57:54;7.00;;;3.90;;
69087;SDS011;56190;43.562;5.036;2022-12-18T17:00:29;6.68;;;4.13;;
69087;SDS011;56190;43.562;5.036;2022-12-18T17:06:22;5.38;;;3.58;;
69087;SDS011;56190;43.562;5.036;2022-12-18T17:11:52;7.30;;;4.13;;
69087;SDS011;56190;43.562;5.036;2022-12-18T17:14:33;6.38;;;5.45;;
69087;SDS011;56190;43.562;5.036;2022-12-18T17:17:01;8.80;;;7.68;;
69087;SDS011;56190;43.562;5.036;2022-12-18T17:19:26;16.20;;;11.43;;
69087;SDS011;56190;43.562;5.036;2022-12-18T17:21:54;16.33;;;10.57;;
69087;SDS011;56190;43.562;5.036;2022-12-18T17:30:39;10.35;;;5.72;;
69087;SDS011;56190;43.562;5.036;2022-12-18T17:51:43;9.25;;;5.43;;
69087;SDS011;56190;43.562;5.036;2022-12-18T17:54:09;11.35;;;5.95;;
69087;SDS011;56190;43.562;5.036;2022-12-18T17:56:34;20.75;;;10.32;;
69087;SDS011;56190;43.562;5.036;2022-12-18T17:58:59;20.67;;;9.77;;
69087;SDS011;56190;43.562;5.036;2022-12-18T18:01:25;15.57;;;8.05;;
69087;SDS011;56190;43.562;5.036;2022-12-18T18:03:51;17.25;;;9.18;;
69087;SDS011;56190;43.562;5.036;2022-12-18T18:06:16;20.23;;;13.40;;
69087;SDS011;56190;43.562;5.036;2022-12-18T18:08:42;18.02;;;10.60;;
69087;SDS011;56190;43.562;5.036;2022-12-18T18:11:09;13.55;;;7.13;;
69087;SDS011;56190;43.562;5.036;2022-12-18T18:13:53;12.93;;;6.15;;
69087;SDS011;56190;43.562;5.036;2022-12-18T18:16:25;16.98;;;9.40;;
69087;SDS011;56190;43.562;5.036;2022-12-18T18:18:50;11.88;;;6.32;;
69087;SDS011;56190;43.562;5.036;2022-12-18T18:21:15;13.02;;;6.90;;
69087;SDS011;56190;43.562;5.036;2022-12-18T18:23:40;11.52;;;7.80;;
69087;SDS011;56190;43.562;5.036;2022-12-18T18:26:06;24.60;;;13.15;;